This is the latest recevied weather packets stored in our database for station/object SM6KNE. If no packets are shown the sender has not sent any weather packets the latest 10 day(s).
| Time | Temp. | Humidity | Pressure | Rain* | Wind** | Luminosity | Snow |
|---|---|---|---|---|---|---|---|
| 1777980924 | 17.22° C | 31% | 1011.1 hPa | - | - | - | - |
| 1777977924 | 16.11° C | 32% | 1011.1 hPa | - | - | - | - |
| 1777970744 | 11.11° C | 41% | 1011.1 hPa | - | - | - | - |
| 1777966524 | 8.89° C | 49% | 1011.1 hPa | - | - | - | - |
| 1777962920 | 6.67° C | 53% | 1011.1 hPa | - | - | - | - |
| 1777962323 | 6.67° C | 53% | 1011.1 hPa | - | - | - | - |
| 1777960524 | 6.11° C | 56% | 1011.1 hPa | - | - | - | - |
| 1777953918 | 5° C | 69% | 1010.1 hPa | - | - | - | - |
| 1777952724 | 5° C | 70% | 1009.1 hPa | - | - | - | - |
| 1777946724 | 7.22° C | 79% | 1009.1 hPa | - | - | - | - |
| 1777946124 | 7.22° C | 80% | 1009.1 hPa | - | - | - | - |
| 1777943118 | 8.33° C | 81% | 1009.1 hPa | - | - | - | - |
| 1777942524 | 8.33° C | 81% | 1009.1 hPa | - | - | - | - |
| 1777940744 | 8.33° C | 81% | 1009.1 hPa | - | - | - | - |
| 1777938924 | 8.33° C | 81% | 1009.1 hPa | - | - | - | - |
| 1777937724 | 8.33° C | 80% | 1009.1 hPa | - | - | - | - |
| 1777934717 | 8.33° C | 80% | 1009.1 hPa | - | - | - | - |
| 1777931119 | 8.33° C | 80% | 1009.1 hPa | - | - | - | - |
| 1777929924 | 8.33° C | 80% | 1009.1 hPa | - | - | - | - |
| 1777929339 | 8.33° C | 79% | 1009.1 hPa | - | - | - | - |
| 1777926324 | 8.89° C | 78% | 1009.1 hPa | - | - | - | - |
| 1777923923 | 8.89° C | 75% | 1009.1 hPa | - | - | - | - |
| 1777922124 | 8.89° C | 74% | 1009.1 hPa | - | - | - | - |
| 1777914924 | 13.33° C | 48% | 1009.1 hPa | - | - | - | - |
| 1777911924 | 16.11° C | 36% | 1009.1 hPa | - | - | - | - |
* Rain since midnight (hover to see other rain measurements)
** Current wind speed in m/s (hover to see current wind gust speed)